Time;durP1;ratioP1;P1;durP2;ratioP2;P2;SDS_P1;SDS_P2;PMS_P1;PMS_P2;Temp;Humidity;BMP_temperature;BMP_pressure;BME280_temperature;BME280_humidity;BME280_pressure;Samples;Min_cycle;Max_cycle;Signal;HPM_P1;HPM_P2
2021/04/09 00:01:43;;;;;;;2.13;1.93;;;-0.20;99.90;;;;;;5002432;28;20635;-80
2021/04/09 00:04:09;;;;;;;1.50;1.40;;;-0.20;99.90;;;;;;4986539;28;20192;-80
2021/04/09 00:06:35;;;;;;;1.90;1.67;;;-0.20;99.90;;;;;;4986458;28;20188;-81
2021/04/09 00:09:05;;;;;;;1.73;1.57;;;-0.30;99.90;;;;;;4986105;28;20216;-80
2021/04/09 00:11:30;;;;;;;2.40;1.73;;;-0.30;99.90;;;;;;4986821;28;20204;-80
2021/04/09 00:13:56;;;;;;;2.10;1.83;;;-0.30;99.90;;;;;;4985541;28;20188;-80
2021/04/09 00:16:22;;;;;;;1.40;1.30;;;-0.30;99.90;;;;;;4987882;28;20184;-81
2021/04/09 00:18:47;;;;;;;2.77;1.53;;;-0.30;99.90;;;;;;5002919;28;20226;-81
2021/04/09 00:21:13;;;;;;;2.53;2.10;;;-0.30;99.90;;;;;;4986019;28;20223;-80
2021/04/09 00:23:38;;;;;;;1.77;1.40;;;-0.30;99.90;;;;;;4987545;28;20562;-81
2021/04/09 00:26:04;;;;;;;2.17;1.53;;;-0.30;99.90;;;;;;4986334;28;20238;-79
2021/04/09 00:28:30;;;;;;;2.53;1.83;;;-0.30;99.90;;;;;;4985812;28;20212;-80
2021/04/09 00:30:56;;;;;;;1.67;1.57;;;-0.20;99.90;;;;;;4985875;28;20623;-80
2021/04/09 00:33:21;;;;;;;2.20;2.00;;;-0.20;99.90;;;;;;4985447;28;20195;-81
2021/04/09 00:35:47;;;;;;;1.93;1.70;;;-0.20;99.90;;;;;;4987601;28;20184;-80
2021/04/09 00:38:13;;;;;;;1.93;1.83;;;-0.10;99.90;;;;;;4985937;28;20204;-80
2021/04/09 00:40:40;;;;;;;1.70;1.40;;;-0.10;99.90;;;;;;4985702;28;20195;-80
2021/04/09 00:43:07;;;;;;;3.10;1.50;;;-0.20;99.90;;;;;;4984765;28;20196;-80
2021/04/09 00:45:37;;;;;;;2.57;1.87;;;-0.10;99.90;;;;;;4984907;28;20229;-81
2021/04/09 00:48:04;;;;;;;1.53;1.43;;;-0.10;99.90;;;;;;4985839;28;20729;-80
2021/04/09 00:50:30;;;;;;;2.53;1.40;;;-0.10;99.90;;;;;;4984985;28;20205;-80
2021/04/09 00:52:58;;;;;;;2.00;1.73;;;-0.10;99.90;;;;;;4985511;28;20242;-80
2021/04/09 00:55:24;;;;;;;2.50;1.30;;;-0.10;99.90;;;;;;5000061;28;20206;-80
2021/04/09 00:57:51;;;;;;;1.57;1.47;;;0.00;99.90;;;;;;4984604;28;20358;-79
2021/04/09 01:00:18;;;;;;;2.77;2.03;;;0.00;99.90;;;;;;4982281;28;20195;-80
2021/04/09 01:02:44;;;;;;;1.43;1.20;;;0.00;99.90;;;;;;4980748;28;20195;-80
2021/04/09 01:05:12;;;;;;;3.37;1.87;;;-0.10;99.90;;;;;;4984460;28;20188;-80
2021/04/09 01:07:41;;;;;;;1.90;1.70;;;0.00;99.90;;;;;;4985238;28;20231;-80
2021/04/09 01:10:09;;;;;;;3.80;1.20;;;0.10;99.90;;;;;;4985210;28;20705;-79
2021/04/09 01:12:34;;;;;;;1.23;1.13;;;0.20;99.90;;;;;;4984532;28;20184;-80
2021/04/09 01:15:00;;;;;;;1.23;1.03;;;0.10;99.90;;;;;;4985388;28;20857;-79
2021/04/09 01:17:37;;;;;;;1.43;1.33;;;0.00;99.90;;;;;;4985732;28;20230;-80
2021/04/09 01:20:38;;;;;;;3.07;1.63;;;0.10;99.90;;;;;;4986148;28;20194;-80
2021/04/09 01:23:37;;;;;;;1.93;1.40;;;0.10;99.90;;;;;;4984824;28;20711;-80
2021/04/09 01:26:51;;;;;;;1.27;1.10;;;0.10;99.90;;;;;;4984401;28;20287;-80
2021/04/09 01:29:38;;;;;;;1.50;1.40;;;0.10;99.90;;;;;;4961024;28;20216;-79
2021/04/09 01:32:07;;;;;;;2.33;1.47;;;0.10;99.90;;;;;;4984416;28;20274;-80
2021/04/09 01:34:37;;;;;;;3.63;1.33;;;0.00;99.90;;;;;;4984096;28;20176;-80
2021/04/09 01:37:14;;;;;;;2.03;1.53;;;0.00;99.90;;;;;;4984158;28;20184;-80
2021/04/09 01:40:02;;;;;;;2.20;1.77;;;-0.10;99.90;;;;;;4983935;28;20210;-80
2021/04/09 01:42:31;;;;;;;2.33;1.47;;;-0.10;99.90;;;;;;4983895;28;20526;-80
2021/04/09 01:44:58;;;;;;;2.20;1.70;;;-0.20;99.90;;;;;;4985098;28;20203;-80
2021/04/09 01:47:25;;;;;;;2.77;1.77;;;-0.10;99.90;;;;;;4984367;28;20505;-80
2021/04/09 01:49:57;;;;;;;3.40;2.20;;;-0.10;99.90;;;;;;5000455;28;20650;-80
2021/04/09 01:52:25;;;;;;;2.97;1.83;;;-0.20;99.90;;;;;;4985974;28;20242;-80
2021/04/09 01:54:53;;;;;;;3.13;1.60;;;-0.30;99.90;;;;;;4983313;28;20669;-80
2021/04/09 01:57:20;;;;;;;2.10;1.80;;;-0.10;99.90;;;;;;4984119;28;20181;-79
2021/04/09 01:59:48;;;;;;;1.07;1.03;;;-0.20;99.90;;;;;;4983628;28;20188;-80
2021/04/09 02:02:17;;;;;;;2.27;2.07;;;-0.20;99.90;;;;;;5000137;28;20184;-80
2021/04/09 02:04:44;;;;;;;2.43;1.83;;;-0.20;99.90;;;;;;4983596;28;20264;-80
2021/04/09 02:07:11;;;;;;;1.97;1.70;;;-0.30;99.90;;;;;;4984047;28;20263;-80
2021/04/09 02:09:37;;;;;;;1.50;1.40;;;-0.20;99.90;;;;;;4983987;28;20266;-80
2021/04/09 02:12:04;;;;;;;2.07;1.50;;;-0.20;99.90;;;;;;4983567;28;20208;-80
2021/04/09 02:14:32;;;;;;;1.77;1.60;;;-0.30;99.90;;;;;;4983564;28;20581;-80
2021/04/09 02:16:59;;;;;;;1.87;1.77;;;-0.30;99.90;;;;;;4984226;28;20184;-80
2021/04/09 02:19:25;;;;;;;2.10;1.80;;;-0.20;99.90;;;;;;4983406;28;20215;-80
2021/04/09 02:21:51;;;;;;;2.10;1.87;;;-0.20;99.90;;;;;;4983837;28;20184;-80
2021/04/09 02:24:17;;;;;;;1.80;1.47;;;-0.30;99.90;;;;;;4988976;28;20258;-80
2021/04/09 02:26:43;;;;;;;1.00;1.00;;;-0.20;99.90;;;;;;4989209;28;20188;-80
2021/04/09 02:29:09;;;;;;;1.57;1.13;;;-0.20;99.90;;;;;;5003239;28;20319;-80
2021/04/09 02:31:35;;;;;;;2.90;1.93;;;-0.20;99.90;;;;;;4987629;28;20734;-80
2021/04/09 02:34:01;;;;;;;2.63;1.63;;;-0.10;99.90;;;;;;4987667;28;20195;-80
2021/04/09 02:36:28;;;;;;;1.67;1.50;;;-0.10;99.90;;;;;;4986887;28;20210;-80
2021/04/09 02:39:00;;;;;;;1.57;1.47;;;0.00;99.90;;;;;;4987208;28;20630;-79
2021/04/09 02:41:31;;;;;;;3.20;2.63;;;0.00;99.90;;;;;;4988474;28;20193;-79
2021/04/09 02:43:57;;;;;;;1.30;1.20;;;0.10;99.90;;;;;;4986893;28;20193;-80
2021/04/09 02:46:38;;;;;;;2.13;1.67;;;0.20;99.90;;;;;;4987384;28;20187;-80
2021/04/09 02:49:14;;;;;;;1.37;1.20;;;0.30;99.90;;;;;;4988316;28;20223;-80
2021/04/09 02:51:41;;;;;;;1.37;1.20;;;0.50;99.90;;;;;;4986929;28;20246;-80
2021/04/09 02:54:13;;;;;;;2.57;1.73;;;0.50;99.90;;;;;;4986800;28;20303;-79
2021/04/09 02:56:40;;;;;;;6.07;2.57;;;0.60;99.90;;;;;;4986776;28;20573;-80
2021/04/09 02:59:12;;;;;;;2.97;1.63;;;0.60;99.90;;;;;;4988334;28;20204;-80
2021/04/09 03:01:42;;;;;;;2.60;1.80;;;0.80;99.90;;;;;;4986836;28;20270;-81
2021/04/09 03:04:09;;;;;;;2.60;1.90;;;0.90;99.90;;;;;;4987071;28;20200;-80
2021/04/09 03:06:36;;;;;;;2.80;1.70;;;0.90;99.90;;;;;;4985860;28;20584;-80
2021/04/09 03:09:06;;;;;;;2.63;1.73;;;1.00;99.90;;;;;;4986946;28;20299;-80
2021/04/09 03:11:33;;;;;;;1.83;1.53;;;1.00;99.90;;;;;;5003051;28;20257;-80
2021/04/09 03:14:01;;;;;;;3.50;1.93;;;1.00;99.90;;;;;;5002749;28;20224;-80
2021/04/09 03:16:31;;;;;;;1.47;1.37;;;0.90;99.90;;;;;;4988187;28;20257;-80
2021/04/09 03:18:56;;;;;;;2.00;1.80;;;1.00;99.90;;;;;;4987108;28;20254;-80
2021/04/09 03:21:22;;;;;;;1.80;1.53;;;1.10;99.90;;;;;;4987959;28;20215;-81
2021/04/09 03:23:48;;;;;;;1.47;1.23;;;1.00;99.90;;;;;;4986141;28;20192;-80
2021/04/09 03:26:13;;;;;;;2.60;1.40;;;1.00;99.90;;;;;;4986969;28;20737;-80
2021/04/09 03:28:39;;;;;;;3.07;1.57;;;1.00;99.90;;;;;;4985895;28;20251;-80
2021/04/09 03:31:04;;;;;;;2.53;2.33;;;1.00;99.90;;;;;;4986521;28;20576;-79
2021/04/09 03:33:30;;;;;;;2.17;1.50;;;0.90;99.90;;;;;;4985736;28;20275;-80
2021/04/09 03:35:56;;;;;;;1.70;1.60;;;1.10;99.90;;;;;;4987713;28;20618;-79
2021/04/09 03:38:21;;;;;;;2.03;1.57;;;0.90;99.90;;;;;;4984572;28;20674;-80
2021/04/09 03:40:47;;;;;;;2.23;1.97;;;0.90;99.90;;;;;;4984572;28;20195;-80
2021/04/09 03:43:14;;;;;;;2.57;1.77;;;0.80;99.90;;;;;;4983971;28;20665;-81
2021/04/09 03:45:40;;;;;;;2.47;1.80;;;0.80;99.90;;;;;;4982746;28;21313;-80
2021/04/09 03:48:06;;;;;;;2.43;2.20;;;0.70;99.90;;;;;;4982521;28;20302;-80
2021/04/09 03:50:32;;;;;;;1.43;1.23;;;0.60;99.90;;;;;;4998791;28;20208;-80
2021/04/09 03:52:58;;;;;;;2.07;1.47;;;0.70;99.90;;;;;;4982379;28;20736;-80
2021/04/09 03:55:24;;;;;;;3.27;1.53;;;0.70;99.90;;;;;;4982184;28;20247;-80
2021/04/09 03:57:50;;;;;;;3.23;2.10;;;0.70;99.90;;;;;;4983717;28;20203;-80
2021/04/09 04:00:17;;;;;;;2.13;1.93;;;0.80;99.90;;;;;;4982509;28;20188;-80
2021/04/09 04:02:42;;;;;;;1.90;1.63;;;0.80;99.90;;;;;;4983709;28;20180;-80
2021/04/09 04:05:08;;;;;;;1.73;1.63;;;0.80;99.90;;;;;;4982404;28;20195;-80
2021/04/09 04:07:34;;;;;;;1.50;1.40;;;1.00;99.90;;;;;;4998533;28;20250;-80
2021/04/09 04:10:00;;;;;;;4.17;2.00;;;1.00;99.90;;;;;;4984160;28;20218;-80
2021/04/09 04:12:26;;;;;;;2.83;1.80;;;0.90;99.90;;;;;;4982371;28;20670;-80
2021/04/09 04:14:51;;;;;;;2.13;1.83;;;0.90;99.90;;;;;;4981959;28;20236;-80
2021/04/09 04:17:17;;;;;;;2.97;2.13;;;0.80;99.90;;;;;;4984048;28;20368;-80
2021/04/09 04:19:43;;;;;;;2.30;1.60;;;0.70;99.90;;;;;;4998292;28;20230;-80
2021/04/09 04:22:08;;;;;;;4.00;2.27;;;0.80;99.90;;;;;;4982718;28;20188;-80
2021/04/09 04:24:35;;;;;;;3.70;2.17;;;0.80;99.90;;;;;;4998006;28;20196;-80
2021/04/09 04:27:00;;;;;;;3.40;1.80;;;0.90;99.90;;;;;;4982029;28;20250;-80
2021/04/09 04:29:26;;;;;;;2.47;1.47;;;0.90;99.90;;;;;;4983155;28;20287;-80
2021/04/09 04:31:51;;;;;;;2.53;1.40;;;0.90;99.90;;;;;;4983426;28;20261;-80
2021/04/09 04:34:17;;;;;;;3.70;3.03;;;1.00;99.90;;;;;;4997495;28;20176;-80
2021/04/09 04:36:43;;;;;;;2.30;1.80;;;1.00;99.90;;;;;;4983022;28;20187;-80
2021/04/09 04:39:08;;;;;;;3.57;2.17;;;1.30;99.90;;;;;;4997896;28;20200;-80
2021/04/09 04:41:34;;;;;;;1.67;1.53;;;1.30;99.90;;;;;;4981966;28;20275;-80
2021/04/09 04:44:00;;;;;;;1.97;1.57;;;1.40;99.90;;;;;;4981360;28;20188;-80
2021/04/09 04:46:25;;;;;;;2.67;1.80;;;1.50;99.90;;;;;;4980768;28;20665;-79
2021/04/09 04:48:51;;;;;;;1.70;1.60;;;1.60;99.90;;;;;;4981242;28;20207;-80
2021/04/09 04:51:18;;;;;;;2.67;1.80;;;1.80;99.90;;;;;;4998326;28;20218;-80
2021/04/09 04:53:44;;;;;;;7.70;1.53;;;2.00;99.90;;;;;;4982707;28;20271;-80
2021/04/09 04:56:09;;;;;;;2.60;2.17;;;2.30;99.90;;;;;;4981459;28;20184;-79
2021/04/09 04:58:35;;;;;;;2.73;1.70;;;2.40;99.90;;;;;;4981624;28;20262;-80
2021/04/09 05:01:00;;;;;;;4.57;1.67;;;2.80;99.90;;;;;;4981508;28;20196;-81
2021/04/09 05:03:26;;;;;;;1.37;1.27;;;3.00;99.90;;;;;;4981310;28;20222;-80
2021/04/09 05:05:52;;;;;;;2.43;1.63;;;3.10;99.90;;;;;;4983045;28;20683;-80
2021/04/09 05:08:17;;;;;;;1.97;1.27;;;3.10;99.90;;;;;;4981213;28;20558;-80
2021/04/09 05:10:43;;;;;;;2.17;1.60;;;3.30;99.90;;;;;;4981396;28;20219;-79
2021/04/09 05:13:08;;;;;;;1.33;1.13;;;3.60;99.90;;;;;;4981064;28;20192;-80
2021/04/09 05:15:34;;;;;;;1.93;1.73;;;3.70;99.90;;;;;;4982904;28;20666;-79
2021/04/09 05:18:00;;;;;;;3.13;1.83;;;3.80;99.90;;;;;;4982122;28;20216;-81
2021/04/09 05:20:25;;;;;;;1.97;1.53;;;3.90;99.90;;;;;;4983321;28;20192;-80
2021/04/09 05:22:51;;;;;;;2.90;1.90;;;3.90;99.90;;;;;;4982494;28;20312;-80
2021/04/09 05:25:16;;;;;;;3.50;1.27;;;4.00;99.90;;;;;;4998135;28;20624;-80
2021/04/09 05:27:42;;;;;;;1.30;1.20;;;4.00;99.90;;;;;;4981023;28;20211;-80
2021/04/09 05:30:08;;;;;;;3.77;2.57;;;4.20;99.90;;;;;;4981723;28;20247;-79
2021/04/09 05:32:34;;;;;;;1.73;1.57;;;4.30;99.90;;;;;;4995647;28;20188;-80
2021/04/09 05:34:59;;;;;;;2.40;1.60;;;4.40;99.90;;;;;;4981479;28;20664;-80
2021/04/09 05:37:25;;;;;;;1.93;1.33;;;4.50;99.90;;;;;;4980374;28;20222;-80
2021/04/09 05:39:51;;;;;;;2.17;1.77;;;4.50;99.90;;;;;;4997737;28;20184;-80
2021/04/09 05:42:17;;;;;;;2.37;1.60;;;4.60;99.90;;;;;;4982523;28;20193;-80
2021/04/09 05:44:43;;;;;;;2.10;1.67;;;4.80;99.90;;;;;;4980689;28;20192;-80
2021/04/09 05:47:09;;;;;;;6.13;2.40;;;4.80;99.90;;;;;;4982332;28;20188;-80
2021/04/09 05:49:35;;;;;;;1.80;1.53;;;4.90;99.90;;;;;;4997271;28;20226;-80
2021/04/09 05:52:06;;;;;;;3.63;2.57;;;4.90;99.90;;;;;;4982200;28;20584;-80
2021/04/09 05:54:32;;;;;;;1.93;1.73;;;5.00;99.90;;;;;;4980787;28;20391;-80
2021/04/09 05:56:59;;;;;;;2.53;1.77;;;5.00;99.90;;;;;;4982954;28;20267;-80
2021/04/09 05:59:25;;;;;;;1.77;1.67;;;5.00;99.90;;;;;;5003170;28;21119;-81
2021/04/09 06:01:51;;;;;;;2.90;1.80;;;5.00;99.90;;;;;;4987219;28;20846;-80
2021/04/09 06:04:17;;;;;;;3.57;2.23;;;5.20;99.90;;;;;;5003760;28;20334;-80
2021/04/09 06:06:43;;;;;;;1.83;1.30;;;5.30;99.90;;;;;;5003564;28;20188;-80
2021/04/09 06:09:09;;;;;;;1.70;1.60;;;5.40;99.90;;;;;;4988032;28;20223;-80
2021/04/09 06:11:34;;;;;;;1.80;1.67;;;5.50;99.90;;;;;;4986969;28;20239;-79
2021/04/09 06:14:00;;;;;;;4.80;1.83;;;5.60;99.90;;;;;;4987771;28;20180;-80
2021/04/09 06:16:26;;;;;;;1.47;1.30;;;5.70;99.90;;;;;;4987691;28;20181;-80
2021/04/09 06:18:52;;;;;;;4.17;2.23;;;5.80;99.90;;;;;;5003154;28;20212;-80
2021/04/09 06:21:18;;;;;;;1.53;1.43;;;5.90;99.90;;;;;;4985375;28;20287;-80
2021/04/09 06:23:43;;;;;;;1.73;1.63;;;5.90;99.90;;;;;;4986786;28;20267;-78
2021/04/09 06:26:09;;;;;;;2.67;2.27;;;5.80;99.90;;;;;;4987962;28;20272;-80
2021/04/09 06:28:35;;;;;;;2.67;1.97;;;5.90;99.90;;;;;;4986311;28;20261;-80
2021/04/09 06:31:00;;;;;;;6.83;1.80;;;6.00;99.90;;;;;;4988031;28;20753;-80
2021/04/09 06:33:26;;;;;;;2.23;1.77;;;6.10;99.90;;;;;;4988809;28;20184;-79
2021/04/09 06:35:52;;;;;;;1.70;1.60;;;6.20;99.90;;;;;;4987703;28;20188;-80
2021/04/09 06:38:18;;;;;;;2.10;1.63;;;6.20;99.90;;;;;;4989053;28;20678;-81
2021/04/09 06:40:45;;;;;;;3.33;2.23;;;6.40;99.90;;;;;;4990488;28;20192;-79
2021/04/09 06:43:11;;;;;;;2.37;1.83;;;6.50;99.90;;;;;;4988624;28;20585;-82
2021/04/09 06:45:39;;;;;;;2.33;1.70;;;6.60;99.90;;;;;;4988693;28;20192;-79
2021/04/09 06:48:06;;;;;;;2.87;2.17;;;6.60;99.90;;;;;;4988768;28;20234;-77
2021/04/09 06:50:32;;;;;;;2.50;2.20;;;6.70;99.90;;;;;;4987917;28;20208;-78
2021/04/09 06:52:58;;;;;;;1.97;1.73;;;6.70;99.90;;;;;;5003667;28;20728;-77
2021/04/09 06:55:24;;;;;;;1.87;1.77;;;6.70;99.90;;;;;;4986912;28;20192;-77
2021/04/09 06:57:51;;;;;;;2.10;1.90;;;6.70;99.90;;;;;;4989135;28;20211;-78
2021/04/09 07:00:17;;;;;;;2.70;1.87;;;6.80;99.90;;;;;;4988437;28;20196;-80
2021/04/09 07:02:44;;;;;;;1.70;1.60;;;6.90;99.90;;;;;;4986939;28;20357;-80
2021/04/09 07:05:14;;;;;;;2.97;2.10;;;7.00;99.90;;;;;;4987629;28;20188;-78
2021/04/09 07:07:40;;;;;;;2.53;1.77;;;7.20;99.90;;;;;;4985241;28;20236;-80
2021/04/09 07:10:07;;;;;;;1.87;1.70;;;7.30;99.90;;;;;;5002810;28;20687;-81
2021/04/09 07:12:34;;;;;;;2.00;1.80;;;7.30;99.90;;;;;;4987276;28;20924;-79
2021/04/09 07:15:08;;;;;;;2.03;1.83;;;7.50;99.90;;;;;;4987549;28;20560;-80
2021/04/09 07:17:44;;;;;;;2.27;1.90;;;7.70;99.90;;;;;;5003081;28;20242;-80
2021/04/09 07:20:22;;;;;;;2.93;2.00;;;8.20;99.90;;;;;;5003146;28;20187;-80
2021/04/09 07:22:59;;;;;;;2.50;1.90;;;8.50;99.90;;;;;;5003313;28;20188;-81
2021/04/09 07:25:33;;;;;;;1.50;1.40;;;8.70;99.90;;;;;;4986982;28;20275;-80
2021/04/09 07:28:12;;;;;;;1.70;1.60;;;9.00;99.90;;;;;;4986631;28;20259;-80
2021/04/09 07:30:40;;;;;;;1.83;1.57;;;9.10;99.90;;;;;;4988195;28;20200;-80
2021/04/09 07:33:07;;;;;;;2.00;1.80;;;9.10;99.90;;;;;;4986488;28;20188;-80
2021/04/09 07:35:54;;;;;;;2.80;2.13;;;9.20;99.90;;;;;;4987571;28;20176;-80
2021/04/09 07:38:22;;;;;;;2.00;1.80;;;9.30;99.90;;;;;;4986228;28;20685;-80
2021/04/09 07:41:04;;;;;;;2.00;1.60;;;9.30;99.90;;;;;;4986282;28;20205;-79
2021/04/09 07:43:38;;;;;;;3.30;2.00;;;9.20;99.90;;;;;;4984854;28;20195;-81
2021/04/09 07:46:05;;;;;;;3.43;1.90;;;9.00;99.90;;;;;;4985722;28;20184;-80
2021/04/09 07:48:32;;;;;;;3.23;2.20;;;8.90;99.90;;;;;;4985340;28;20208;-80
2021/04/09 07:50:58;;;;;;;2.30;1.80;;;8.90;99.90;;;;;;4986403;28;20338;-79
2021/04/09 07:53:30;;;;;;;2.97;2.03;;;8.90;99.90;;;;;;4987342;28;20181;-79
2021/04/09 07:56:07;;;;;;;3.10;2.03;;;9.00;99.90;;;;;;4986411;28;21191;-79
2021/04/09 07:58:36;;;;;;;3.43;2.00;;;9.00;99.90;;;;;;4984333;28;20314;-80
2021/04/09 08:01:04;;;;;;;5.33;2.20;;;9.10;99.90;;;;;;4985693;28;20203;-79
2021/04/09 08:03:31;;;;;;;2.20;2.00;;;9.10;99.90;;;;;;4985124;28;20565;-79
2021/04/09 08:06:17;;;;;;;4.53;1.77;;;9.20;99.90;;;;;;4985369;28;20192;-79
2021/04/09 08:08:46;;;;;;;4.53;2.47;;;9.10;99.90;;;;;;4984923;28;20215;-80
2021/04/09 08:11:28;;;;;;;2.30;1.70;;;9.10;99.90;;;;;;5001279;28;20694;-81
2021/04/09 08:14:13;;;;;;;2.87;2.00;;;9.10;99.90;;;;;;5001984;28;20184;-79
2021/04/09 08:16:46;;;;;;;2.13;1.80;;;9.10;99.90;;;;;;4986825;28;20184;-81
2021/04/09 08:19:18;;;;;;;2.83;2.20;;;9.10;99.90;;;;;;4986623;28;20216;-80
2021/04/09 08:21:53;;;;;;;2.97;1.90;;;9.20;99.90;;;;;;4985684;28;20547;-80
2021/04/09 08:24:23;;;;;;;2.43;1.80;;;9.40;99.90;;;;;;4985411;28;20195;-80
2021/04/09 08:26:50;;;;;;;3.50;2.17;;;9.60;99.90;;;;;;4985238;28;20184;-80
2021/04/09 08:29:16;;;;;;;2.83;2.13;;;9.70;99.90;;;;;;4985726;28;20827;-79
2021/04/09 08:31:43;;;;;;;2.33;2.13;;;9.80;99.90;;;;;;4985014;28;20212;-80
2021/04/09 08:34:12;;;;;;;2.70;2.10;;;9.70;99.90;;;;;;5001680;28;20258;-80
2021/04/09 08:36:39;;;;;;;4.63;2.27;;;9.60;99.90;;;;;;4985390;28;20212;-79
2021/04/09 08:39:09;;;;;;;2.37;1.97;;;9.70;99.90;;;;;;4985221;28;20200;-79
2021/04/09 08:41:39;;;;;;;2.50;2.30;;;9.70;99.90;;;;;;4985510;28;20226;-80
2021/04/09 08:44:10;;;;;;;2.80;2.17;;;9.80;99.90;;;;;;4985191;28;20823;-80
2021/04/09 08:46:37;;;;;;;2.77;2.13;;;9.90;99.90;;;;;;4985904;28;20191;-80
2021/04/09 08:49:04;;;;;;;2.97;2.10;;;9.90;99.90;;;;;;4986747;28;20294;-79
2021/04/09 08:51:31;;;;;;;2.17;1.97;;;9.70;99.90;;;;;;4984610;28;20207;-79
2021/04/09 08:54:18;;;;;;;2.47;2.00;;;9.70;99.90;;;;;;4986241;28;20618;-79
2021/04/09 08:56:44;;;;;;;2.73;2.03;;;9.70;99.90;;;;;;4983131;28;20197;-80
2021/04/09 08:59:10;;;;;;;2.87;2.17;;;9.80;99.90;;;;;;4986494;28;20270;-80
2021/04/09 09:01:35;;;;;;;3.37;2.37;;;9.90;99.90;;;;;;4984883;28;20192;-79
2021/04/09 09:04:22;;;;;;;2.17;2.00;;;10.10;99.90;;;;;;4984996;28;20184;-79
2021/04/09 09:06:49;;;;;;;4.87;1.97;;;10.10;99.90;;;;;;4985301;28;20200;-80
2021/04/09 09:09:32;;;;;;;3.97;2.33;;;10.30;99.90;;;;;;4985060;28;20701;-81
2021/04/09 09:12:02;;;;;;;3.60;2.00;;;10.30;99.90;;;;;;4984421;28;20216;-79
2021/04/09 09:14:34;;;;;;;3.57;1.87;;;10.30;99.90;;;;;;4984785;28;20180;-80
2021/04/09 09:17:18;;;;;;;4.07;2.50;;;10.40;99.90;;;;;;5001094;28;20176;-79
2021/04/09 09:19:50;;;;;;;3.07;2.53;;;10.50;99.90;;;;;;4984507;28;20188;-80
2021/04/09 09:22:21;;;;;;;4.17;2.47;;;10.70;99.90;;;;;;4998689;28;20221;-81
2021/04/09 09:25:06;;;;;;;2.30;1.77;;;10.90;99.90;;;;;;4983243;28;20712;-79
2021/04/09 09:27:47;;;;;;;3.80;2.57;;;;;;;;;;4983660;28;20188;-80
2021/04/09 09:30:41;;;;;;;2.70;2.50;;;11.00;99.90;;;;;;4984571;28;20668;-80
2021/04/09 09:33:28;;;;;;;3.70;2.40;;;11.30;99.90;;;;;;4986121;28;20599;-80
2021/04/09 09:35:58;;;;;;;5.10;2.23;;;11.40;99.90;;;;;;4988988;28;20208;-80
2021/04/09 09:38:50;;;;;;;3.17;2.27;;;11.40;99.90;;;;;;4988123;28;20271;-80
2021/04/09 09:41:36;;;;;;;2.90;2.20;;;11.70;99.90;;;;;;4985258;28;20203;-81
2021/04/09 09:44:23;;;;;;;2.63;2.20;;;11.90;99.90;;;;;;4988258;28;20565;-80
2021/04/09 09:46:57;;;;;;;2.93;2.30;;;11.90;99.90;;;;;;4988174;28;20654;-79
2021/04/09 09:49:24;;;;;;;3.40;2.73;;;12.20;99.90;;;;;;4988700;28;20208;-80
2021/04/09 09:51:51;;;;;;;4.63;2.50;;;12.30;99.90;;;;;;4989501;28;20197;-81
2021/04/09 09:54:25;;;;;;;2.87;2.10;;;12.40;99.90;;;;;;4989749;28;20207;-81
2021/04/09 09:56:51;;;;;;;3.13;2.23;;;12.60;99.90;;;;;;5004245;28;20199;-80
2021/04/09 09:59:22;;;;;;;3.30;2.17;;;12.70;99.90;;;;;;4989135;28;20555;-78
2021/04/09 10:01:49;;;;;;;4.03;2.87;;;12.70;99.90;;;;;;4990480;28;20185;-77
2021/04/09 10:04:16;;;;;;;3.23;2.30;;;12.40;99.90;;;;;;4989996;28;20295;-78
2021/04/09 10:06:46;;;;;;;3.40;2.00;;;12.50;99.90;;;;;;4987309;28;20742;-77
2021/04/09 10:09:12;;;;;;;2.30;2.10;;;12.30;99.90;;;;;;4988009;28;20295;-77
2021/04/09 10:11:45;;;;;;;3.23;2.50;;;12.20;99.90;;;;;;4986589;28;20720;-77
2021/04/09 10:14:10;;;;;;;3.23;2.50;;;12.10;99.90;;;;;;4988902;28;20199;-77
2021/04/09 10:16:36;;;;;;;2.95;2.33;;;12.10;99.90;;;;;;4988759;28;20926;-77
2021/04/09 10:19:07;;;;;;;2.50;2.30;;;12.10;99.90;;;;;;4989078;28;20219;-76
2021/04/09 10:21:42;;;;;;;3.72;2.53;;;12.10;99.90;;;;;;5002900;28;20279;-77
2021/04/09 10:24:12;;;;;;;2.57;2.37;;;12.30;99.90;;;;;;5003368;28;20572;-77
2021/04/09 10:26:49;;;;;;;1.73;1.50;;;12.30;99.90;;;;;;4987989;28;20198;-77
2021/04/09 10:29:28;;;;;;;2.80;2.20;;;12.50;99.90;;;;;;4989579;28;20204;-77
2021/04/09 10:31:57;;;;;;;3.30;2.37;;;12.60;99.90;;;;;;4988648;28;20321;-77
2021/04/09 10:34:29;;;;;;;2.70;2.00;;;12.50;99.90;;;;;;4987424;28;20584;-77
2021/04/09 10:36:56;;;;;;;2.58;2.05;;;12.60;99.90;;;;;;4986670;28;20215;-77
2021/04/09 10:39:23;;;;;;;3.20;2.40;;;12.90;99.90;;;;;;4984948;28;20254;-77
2021/04/09 10:41:50;;;;;;;2.28;2.08;;;13.00;99.90;;;;;;4985813;28;20219;-77
2021/04/09 10:44:19;;;;;;;3.08;2.60;;;13.00;99.90;;;;;;4985968;28;20196;-77
2021/04/09 10:47:03;;;;;;;2.35;2.15;;;12.90;99.90;;;;;;4985498;28;20195;-77
2021/04/09 10:49:32;;;;;;;3.38;2.00;;;13.00;99.90;;;;;;4985538;28;20390;-78
2021/04/09 10:52:09;;;;;;;3.75;2.83;;;13.20;99.90;;;;;;4986720;28;20725;-78
2021/04/09 10:54:38;;;;;;;2.50;2.08;;;13.30;99.90;;;;;;4987153;28;20307;-77
2021/04/09 10:57:06;;;;;;;2.35;2.00;;;13.30;99.90;;;;;;4986717;28;20242;-78
2021/04/09 10:59:44;;;;;;;1.83;1.70;;;13.50;99.90;;;;;;4987560;28;20200;-77
2021/04/09 11:02:17;;;;;;;2.20;2.00;;;13.30;99.90;;;;;;4984334;28;20188;-80
2021/04/09 11:04:50;;;;;;;2.20;2.00;;;13.10;99.90;;;;;;4988190;28;20215;-78
2021/04/09 11:07:15;;;;;;;1.80;1.55;;;13.00;99.90;;;;;;4987417;28;20658;-78
2021/04/09 11:09:45;;;;;;;1.63;1.52;;;13.00;99.90;;;;;;5003132;28;20220;-77
2021/04/09 11:12:18;;;;;;;2.75;1.30;;;13.00;99.90;;;;;;4988188;28;20223;-78
2021/04/09 11:14:43;;;;;;;2.97;1.83;;;13.00;99.90;;;;;;4987883;28;20715;-78
2021/04/09 11:17:20;;;;;;;2.90;1.90;;;12.80;99.90;;;;;;4988285;28;20192;-78
2021/04/09 11:19:46;;;;;;;2.78;1.73;;;12.90;99.90;;;;;;4988133;28;20188;-78
2021/04/09 11:22:16;;;;;;;2.20;2.00;;;13.10;99.90;;;;;;4985688;28;20247;-77
2021/04/09 11:24:42;;;;;;;4.30;2.03;;;13.30;99.90;;;;;;4987611;28;20184;-77
2021/04/09 11:27:22;;;;;;;1.73;1.63;;;13.40;99.90;;;;;;4987490;28;20207;-78
2021/04/09 11:29:48;;;;;;;2.53;2.03;;;13.50;99.90;;;;;;4986783;28;20186;-78
2021/04/09 11:32:18;;;;;;;1.85;1.63;;;13.30;99.90;;;;;;4987195;28;20280;-77
2021/04/09 11:34:46;;;;;;;3.22;1.92;;;13.30;99.90;;;;;;4986368;28;20216;-77
2021/04/09 11:37:13;;;;;;;2.35;1.77;;;13.40;99.90;;;;;;4986565;28;20180;-80
2021/04/09 11:39:56;;;;;;;1.77;1.63;;;13.30;99.90;;;;;;4986846;28;20196;-82
2021/04/09 11:42:34;;;;;;;3.10;2.22;;;13.30;99.90;;;;;;4985333;28;20188;-82
2021/04/09 11:45:03;;;;;;;2.08;1.83;;;13.50;99.90;;;;;;5000422;28;20234;-82
2021/04/09 11:47:33;;;;;;;1.83;1.55;;;13.40;99.90;;;;;;4999994;28;20746;-82
2021/04/09 11:50:23;;;;;;;1.48;1.30;;;13.40;99.90;;;;;;4984264;28;20190;-81
2021/04/09 11:53:01;;;;;;;3.33;1.65;;;13.10;99.90;;;;;;4980572;28;20544;-81
2021/04/09 11:55:30;;;;;;;2.33;1.63;;;12.80;99.90;;;;;;4982782;28;20571;-82
2021/04/09 11:57:57;;;;;;;2.53;1.80;;;12.80;99.90;;;;;;4983800;28;20270;-81
2021/04/09 12:00:26;;;;;;;2.88;1.58;;;12.80;99.90;;;;;;4983162;28;20618;-83
2021/04/09 12:03:02;;;;;;;2.65;1.75;;;13.00;99.90;;;;;;4984783;28;20500;-83
2021/04/09 12:05:31;;;;;;;4.28;1.92;;;12.90;99.90;;;;;;4983305;28;20650;-82
2021/04/09 12:08:00;;;;;;;2.75;1.88;;;12.90;99.90;;;;;;4983108;28;20200;-81
2021/04/09 12:10:28;;;;;;;1.70;1.60;;;12.80;99.90;;;;;;4982870;28;20185;-81
2021/04/09 12:12:54;;;;;;;1.52;1.30;;;12.90;99.90;;;;;;4983427;28;20271;-81
2021/04/09 12:15:22;;;;;;;2.45;2.00;;;13.00;99.90;;;;;;4983789;28;20279;-82
2021/04/09 12:17:47;;;;;;;4.05;2.20;;;13.20;99.90;;;;;;4983780;28;20690;-81
2021/04/09 12:20:16;;;;;;;1.83;1.73;;;13.40;99.90;;;;;;4983704;28;20184;-82
2021/04/09 12:22:43;;;;;;;2.00;1.80;;;13.30;99.90;;;;;;4998788;28;20180;-79
2021/04/09 12:25:10;;;;;;;3.50;1.52;;;13.60;99.90;;;;;;4982770;28;20311;-77
2021/04/09 12:27:37;;;;;;;2.03;1.80;;;13.60;99.90;;;;;;4981390;28;20188;-76
2021/04/09 12:30:06;;;;;;;2.40;1.52;;;13.70;99.30;;;;;;4983540;28;20191;-77
2021/04/09 12:32:32;;;;;;;1.80;1.70;;;13.80;99.90;;;;;;4997936;28;20223;-77
2021/04/09 12:34:57;;;;;;;2.17;2.05;;;13.70;99.50;;;;;;4981508;28;20189;-77
2021/04/09 12:37:23;;;;;;;3.55;2.60;;;13.70;99.90;;;;;;4982080;28;20191;-78
2021/04/09 12:39:49;;;;;;;2.08;1.70;;;13.70;99.30;;;;;;4981688;28;20176;-77
2021/04/09 12:42:15;;;;;;;2.35;2.15;;;13.80;99.90;;;;;;4981891;28;20677;-77
2021/04/09 12:44:40;;;;;;;3.10;2.22;;;13.70;99.40;;;;;;4982706;28;20191;-77
2021/04/09 12:47:06;;;;;;;2.50;1.85;;;13.90;99.90;;;;;;4982249;28;20444;-77
2021/04/09 12:49:32;;;;;;;1.88;1.75;;;14.00;99.10;;;;;;4982781;28;20295;-77
2021/04/09 12:51:58;;;;;;;2.00;1.65;;;13.90;99.90;;;;;;4981615;28;20204;-77
2021/04/09 12:54:24;;;;;;;3.00;2.30;;;14.00;99.90;;;;;;4981798;28;20286;-78
2021/04/09 12:56:50;;;;;;;3.03;2.10;;;13.80;99.90;;;;;;4981432;28;20176;-77
2021/04/09 12:59:16;;;;;;;3.28;2.30;;;13.90;99.50;;;;;;4982741;28;20208;-77
2021/04/09 13:01:43;;;;;;;3.75;2.20;;;13.90;99.90;;;;;;4983165;28;20617;-77
2021/04/09 13:04:09;;;;;;;3.17;2.20;;;13.80;99.90;;;;;;4982759;28;20192;-77